Página principal
METAR-TAF:

METAR-TAF

Aeroportos :

Dakhla, Marrocos

latitude: 23-43-05N, longitude: 015-55-55W, altura: 11 m

Observação actual do tempo

O boletim foi feito há 25 minutos, às 16:00 UTC
Vento 21 kt de norte
Temperatura 21°C
Humidade 69%
Pressão 1015 hPa
Visibilidade 10 km ou mais
sem nuvens abaixo de 1500 metros e sem cumulonimbus

METAR: GMMH 251600Z 01021KT CAVOK 21/15 Q1015 NOSIG

Hora: 16:25 (16:25 UTC)

Previsão

O boletim foi feito há 5 horas e 25 minutos, às 11:00 UTC
Previsão válida de 25 às 12 UTC a 26 às 18 UTC
Vento 22 kt de nordeste
Visibilidade 10 km ou mais
sem nuvens abaixo de 1500 metros e sem cumulonimbus

TAF: GMMH 251100Z 2512/2618 04022KT CAVOK

Observações e previsões do tempo de mais de 4000 aeroportos (mensagens METAR e TAF).

As estações disponíveis são os pontos amarelos e vermelhos sobre o mapa.

Mova o rato sobre o mapa para ver o nome da estação.

Depois clique no ponto para visualizar as observações e previsões meteorológicas.

Para alterar o mapa : clique nos botões verdes com uma cruz preta para aumentar o zoom; no botão verde com uma pitada de zoom; ou nas setas verdes para mapas adjacentes.


METAR-TAF: